createdAt,value
2023-03-28T00:01:37.760Z,1.54
2023-03-28T00:04:09.861Z,1.63
2023-03-28T00:06:41.652Z,1.57
2023-03-28T00:09:13.563Z,1.45
2023-03-28T00:11:45.909Z,1.49
2023-03-28T00:14:17.600Z,1.31
2023-03-28T00:16:49.256Z,1.47
2023-03-28T00:19:21.513Z,1.46
2023-03-28T00:21:53.166Z,1.41
2023-03-28T00:24:25.721Z,1.44
2023-03-28T00:26:57.437Z,1.58
2023-03-28T00:29:29.497Z,1.64
2023-03-28T00:32:01.310Z,1.93
2023-03-28T00:34:33.152Z,1.69
2023-03-28T00:37:04.894Z,1.86
2023-03-28T00:39:37.361Z,1.54
2023-03-28T00:42:14.146Z,1.83
2023-03-28T00:44:50.033Z,1.83
2023-03-28T00:47:24.712Z,1.75
2023-03-28T00:50:33.693Z,1.91
2023-03-28T00:53:23.484Z,1.84
2023-03-28T00:56:06.560Z,2.02
2023-03-28T00:58:42.983Z,1.95
2023-03-28T01:01:18.607Z,1.83
2023-03-28T01:03:56.632Z,1.99
2023-03-28T01:06:34.233Z,2.12
2023-03-28T01:09:09.163Z,2.08
2023-03-28T01:11:43.820Z,2.31
2023-03-28T01:14:23.915Z,2.19
2023-03-28T01:16:57.773Z,2.16
2023-03-28T01:19:48.960Z,2.20
2023-03-28T01:22:35.933Z,2.18
2023-03-28T01:25:35.363Z,2.37
2023-03-28T01:28:28.888Z,2.35
2023-03-28T01:31:12.668Z,2.40
2023-03-28T01:34:02.878Z,2.34
2023-03-28T01:37:00.420Z,2.65
2023-03-28T01:39:53.474Z,2.57
2023-03-28T01:42:58.620Z,2.58
2023-03-28T01:45:49.633Z,2.83
2023-03-28T01:48:27.030Z,2.61
2023-03-28T01:51:11.374Z,2.63
2023-03-28T01:54:05.399Z,2.59
2023-03-28T01:56:51.551Z,2.72
2023-03-28T01:59:40.136Z,2.77
2023-03-28T02:02:38.600Z,2.70
2023-03-28T02:05:32.090Z,2.71
2023-03-28T02:08:09.309Z,2.82
2023-03-28T02:10:58.585Z,2.61
2023-03-28T02:13:55.459Z,2.67
2023-03-28T02:17:01.636Z,2.74
2023-03-28T02:19:59.025Z,2.71
2023-03-28T02:23:13.503Z,2.60
2023-03-28T02:26:07.254Z,2.84
2023-03-28T02:29:01.050Z,2.65
2023-03-28T02:31:37.256Z,3.08
2023-03-28T02:34:09.568Z,3.21
2023-03-28T02:36:48.074Z,3.20
2023-03-28T02:39:29.011Z,3.30
2023-03-28T02:42:27.664Z,3.50
2023-03-28T02:45:10.730Z,3.40
2023-03-28T02:48:06.838Z,3.41
2023-03-28T02:51:08.651Z,3.65
2023-03-28T02:53:59.044Z,3.22
2023-03-28T02:56:40.027Z,3.33
2023-03-28T02:59:40.947Z,3.22
2023-03-28T03:02:18.134Z,3.40
2023-03-28T03:04:50.899Z,3.25
2023-03-28T03:07:22.688Z,3.38
2023-03-28T03:09:54.385Z,3.45
2023-03-28T03:12:26.297Z,3.28
2023-03-28T03:15:02.747Z,3.30
2023-03-28T03:18:03.714Z,3.36
2023-03-28T03:20:37.311Z,3.41
2023-03-28T03:23:09.133Z,3.38
2023-03-28T03:25:40.961Z,3.11
2023-03-28T03:28:20.957Z,3.34
2023-03-28T03:30:54.715Z,3.49
2023-03-28T03:33:35.268Z,3.24
2023-03-28T03:36:10.186Z,3.25
2023-03-28T03:38:42.016Z,3.50
2023-03-28T03:41:18.171Z,3.45
2023-03-28T03:43:50.103Z,3.42
2023-03-28T03:46:21.905Z,2.96
2023-03-28T03:48:55.016Z,3.34
2023-03-28T03:51:26.896Z,3.22
2023-03-28T03:54:00.788Z,3.19
2023-03-28T03:56:45.560Z,3.32
2023-03-28T03:59:17.376Z,3.16
2023-03-28T04:01:51.109Z,3.32
2023-03-28T04:04:29.423Z,3.19
2023-03-28T04:07:24.188Z,2.99
2023-03-28T04:09:58.531Z,3.15
2023-03-28T04:12:33.010Z,3.10
2023-03-28T04:15:06.066Z,3.31
2023-03-28T04:17:41.360Z,3.00
2023-03-28T04:20:17.581Z,2.95
2023-03-28T04:23:11.210Z,2.83
2023-03-28T04:25:45.129Z,3.02
2023-03-28T04:28:23.976Z,2.72
2023-03-28T04:31:02.404Z,2.89
2023-03-28T04:33:57.169Z,2.81
2023-03-28T04:36:29.590Z,2.77
2023-03-28T04:39:06.356Z,2.79
2023-03-28T04:41:50.584Z,2.66
2023-03-28T04:44:31.393Z,3.04
2023-03-28T04:47:09.454Z,3.29
2023-03-28T04:49:44.083Z,3.12
2023-03-28T04:52:16.347Z,2.89
2023-03-28T04:54:50.858Z,2.87
2023-03-28T04:57:25.664Z,2.90
2023-03-28T05:00:05.380Z,2.91
2023-03-28T05:02:59.520Z,3.06
2023-03-28T05:05:33.561Z,2.93
2023-03-28T05:08:05.707Z,2.97
2023-03-28T05:10:39.721Z,2.82
2023-03-28T05:13:14.846Z,3.19
2023-03-28T05:16:02.950Z,3.26
2023-03-28T05:18:50.187Z,3.09
2023-03-28T05:21:27.427Z,3.20
2023-03-28T05:23:59.257Z,3.42
2023-03-28T05:26:31.593Z,3.56
2023-03-28T05:29:03.953Z,3.54
2023-03-28T05:31:36.421Z,3.60
2023-03-28T05:34:26.436Z,3.56
2023-03-28T05:36:58.612Z,3.61
2023-03-28T05:39:33.566Z,3.68
2023-03-28T05:42:08.762Z,3.55
2023-03-28T05:44:43.126Z,3.63
2023-03-28T05:47:18.057Z,3.60
2023-03-28T05:49:50.031Z,3.29
2023-03-28T05:52:22.052Z,3.54
2023-03-28T05:54:54.013Z,3.55
2023-03-28T05:57:26.204Z,3.28
2023-03-28T05:59:58.399Z,3.17
2023-03-28T06:02:30.481Z,3.21
2023-03-28T06:05:02.523Z,3.20
2023-03-28T06:07:42.054Z,3.09
2023-03-28T06:10:17.469Z,3.35
2023-03-28T06:13:01.078Z,2.94
2023-03-28T06:15:33.490Z,3.03
2023-03-28T06:18:05.501Z,2.98
2023-03-28T06:20:37.821Z,2.82
2023-03-28T06:23:09.624Z,2.76
2023-03-28T06:25:41.358Z,2.68
2023-03-28T06:28:13.671Z,2.72
2023-03-28T06:31:05.480Z,2.71
2023-03-28T06:33:37.432Z,2.69
2023-03-28T06:36:10.481Z,2.47
2023-03-28T06:38:42.237Z,2.81
2023-03-28T06:41:14.227Z,2.86
2023-03-28T06:43:46.455Z,3.04
2023-03-28T06:46:53.692Z,2.55
2023-03-28T06:49:25.672Z,2.69
2023-03-28T06:52:16.006Z,2.97
2023-03-28T06:54:50.567Z,2.77
2023-03-28T06:57:22.596Z,2.62
2023-03-28T06:59:57.443Z,2.98
2023-03-28T07:02:41.424Z,2.94
2023-03-28T07:05:14.748Z,3.00
2023-03-28T07:07:46.757Z,3.05
2023-03-28T07:10:18.663Z,2.81
2023-03-28T07:12:50.537Z,2.97
2023-03-28T07:15:22.421Z,3.05
2023-03-28T07:17:54.426Z,3.09
2023-03-28T07:20:27.604Z,3.59
2023-03-28T07:23:00.168Z,3.43
2023-03-28T07:25:34.074Z,3.66
2023-03-28T07:28:06.794Z,4.06
2023-03-28T07:30:39.380Z,4.12
2023-03-28T07:33:18.902Z,4.04
2023-03-28T07:35:53.620Z,3.92
2023-03-28T07:38:27.341Z,3.79
2023-03-28T07:41:02.785Z,4.26
2023-03-28T07:43:35.579Z,4.61
2023-03-28T07:46:11.594Z,4.31
2023-03-28T07:48:43.848Z,4.44
2023-03-28T07:51:16.727Z,5.97
2023-03-28T07:53:48.920Z,6.05
2023-03-28T07:56:20.947Z,4.76
2023-03-28T07:59:03.722Z,4.53
2023-03-28T08:01:36.003Z,4.22
2023-03-28T08:04:10.807Z,4.09
2023-03-28T08:07:03.059Z,4.09
2023-03-28T08:09:35.336Z,4.52
2023-03-28T08:12:16.296Z,4.69
2023-03-28T08:14:48.256Z,4.61
2023-03-28T08:17:25.147Z,4.20
2023-03-28T08:19:57.753Z,4.32
2023-03-28T08:22:32.573Z,4.09
2023-03-28T08:25:36.696Z,3.91
2023-03-28T08:28:10.532Z,4.35
2023-03-28T08:30:42.130Z,4.17
2023-03-28T08:33:14.677Z,4.00
2023-03-28T08:35:46.773Z,3.88
2023-03-28T08:38:23.005Z,3.63
2023-03-28T08:41:08.354Z,3.69
2023-03-28T08:44:00.978Z,3.71
2023-03-28T08:46:36.244Z,3.70
2023-03-28T08:49:16.637Z,3.65
2023-03-28T08:51:56.693Z,3.93
2023-03-28T08:54:43.381Z,3.78
2023-03-28T08:57:21.305Z,3.78
2023-03-28T09:00:00.126Z,3.65
2023-03-28T09:02:32.968Z,3.84
2023-03-28T09:05:21.978Z,3.80
2023-03-28T09:08:24.352Z,3.84
2023-03-28T09:11:35.379Z,3.92
2023-03-28T09:14:18.842Z,3.96
2023-03-28T09:16:58.392Z,3.81
2023-03-28T09:19:51.534Z,3.59
2023-03-28T09:22:59.820Z,3.92
2023-03-28T09:25:46.997Z,3.83
2023-03-28T09:28:37.647Z,3.92
2023-03-28T09:31:14.055Z,3.95
2023-03-28T09:33:48.722Z,4.15
2023-03-28T09:36:41.422Z,4.45
2023-03-28T09:39:45.505Z,3.77
2023-03-28T09:42:31.109Z,3.69
2023-03-28T09:45:44.500Z,3.76
2023-03-28T09:48:37.863Z,3.54
2023-03-28T09:51:18.233Z,3.39
2023-03-28T09:53:51.159Z,3.75
2023-03-28T09:56:33.077Z,3.97
2023-03-28T09:59:29.123Z,3.88
2023-03-28T10:02:04.643Z,3.85
2023-03-28T10:04:41.463Z,3.99
2023-03-28T10:07:32.516Z,4.84
2023-03-28T10:10:22.481Z,4.03
2023-03-28T10:13:05.655Z,4.09
2023-03-28T10:15:48.250Z,3.96
2023-03-28T10:18:41.656Z,3.89
2023-03-28T10:21:32.146Z,4.12
2023-03-28T10:24:26.719Z,3.98
2023-03-28T10:27:24.998Z,3.85
2023-03-28T10:30:14.900Z,4.17
2023-03-28T10:33:06.644Z,3.95
2023-03-28T10:36:10.199Z,4.24
2023-03-28T10:38:42.680Z,4.04
2023-03-28T10:41:33.365Z,3.88
2023-03-28T10:44:35.870Z,4.28
2023-03-28T10:47:17.977Z,4.17
2023-03-28T10:50:04.419Z,4.38
2023-03-28T10:52:46.457Z,4.21
2023-03-28T10:55:30.557Z,4.73
2023-03-28T10:58:17.298Z,4.83
2023-03-28T11:01:12.148Z,4.85
2023-03-28T11:04:26.559Z,4.80
2023-03-28T11:07:05.159Z,5.23
2023-03-28T11:10:24.121Z,4.69
2023-03-28T11:13:30.836Z,5.07
2023-03-28T11:16:21.678Z,5.08
2023-03-28T11:19:32.074Z,5.11
2023-03-28T11:22:22.898Z,5.21
2023-03-28T11:25:22.007Z,5.24
2023-03-28T11:28:30.116Z,5.84
2023-03-28T11:31:20.404Z,5.73
2023-03-28T11:34:28.192Z,5.16
2023-03-28T11:37:19.153Z,5.04
2023-03-28T11:40:04.667Z,5.08
2023-03-28T11:42:56.077Z,4.83
2023-03-28T11:45:52.189Z,5.27
2023-03-28T11:48:36.245Z,5.07
2023-03-28T11:51:21.001Z,5.22
2023-03-28T11:53:59.448Z,5.13
2023-03-28T11:56:58.726Z,5.53
2023-03-28T11:59:45.479Z,5.37
2023-03-28T12:02:30.241Z,5.39
2023-03-28T12:05:31.782Z,5.32
2023-03-28T12:08:13.488Z,5.22
2023-03-28T12:10:57.192Z,5.58
2023-03-28T12:14:11.053Z,5.60
2023-03-28T12:16:51.146Z,5.23
2023-03-28T12:19:40.513Z,5.16
2023-03-28T12:22:23.573Z,5.23
2023-03-28T12:25:11.949Z,5.29
2023-03-28T12:28:16.576Z,5.14
2023-03-28T12:31:06.779Z,5.21
2023-03-28T12:34:04.388Z,5.32
2023-03-28T12:37:21.687Z,4.84
2023-03-28T12:40:12.693Z,4.73
2023-03-28T12:42:48.134Z,5.05
2023-03-28T12:45:42.240Z,4.89
2023-03-28T12:48:36.801Z,4.76
2023-03-28T12:51:19.965Z,5.10
2023-03-28T12:54:24.997Z,4.68
2023-03-28T12:57:11.120Z,5.04
2023-03-28T13:00:06.807Z,4.91
2023-03-28T13:03:04.417Z,5.08
2023-03-28T13:05:45.411Z,4.93
2023-03-28T13:08:48.815Z,4.93
2023-03-28T13:11:33.281Z,4.68
2023-03-28T13:14:20.337Z,4.78
2023-03-28T13:17:22.786Z,4.72
2023-03-28T13:20:25.949Z,4.82
2023-03-28T13:22:59.340Z,4.66
2023-03-28T13:25:36.122Z,5.00
2023-03-28T13:28:11.214Z,4.84
2023-03-28T13:30:46.066Z,4.64
2023-03-28T13:33:27.032Z,4.77
2023-03-28T13:35:58.878Z,5.18
2023-03-28T13:38:30.968Z,4.91
2023-03-28T13:41:08.374Z,4.73
2023-03-28T13:43:57.445Z,4.55
2023-03-28T13:46:38.169Z,4.02
2023-03-28T13:49:10.134Z,4.00
2023-03-28T13:51:50.188Z,4.07
2023-03-28T13:54:23.909Z,3.59
2023-03-28T13:57:06.266Z,4.00
2023-03-28T13:59:58.202Z,3.34
2023-03-28T14:02:31.647Z,4.59
2023-03-28T14:05:25.548Z,3.46
2023-03-28T14:08:17.376Z,4.45
2023-03-28T14:10:49.740Z,3.65
2023-03-28T14:13:27.454Z,3.96
2023-03-28T14:15:59.389Z,3.28
2023-03-28T14:18:43.074Z,2.99
2023-03-28T14:21:15.021Z,2.82
2023-03-28T14:23:56.247Z,2.90
2023-03-28T14:26:33.790Z,3.07
2023-03-28T14:29:13.969Z,3.30
2023-03-28T14:31:47.935Z,3.05
2023-03-28T14:34:29.202Z,2.91
2023-03-28T14:37:06.088Z,3.27
2023-03-28T14:39:37.837Z,2.93
2023-03-28T14:42:16.595Z,2.74
2023-03-28T14:44:53.735Z,3.01
2023-03-28T14:47:32.774Z,3.51
2023-03-28T14:50:05.219Z,3.28
2023-03-28T14:52:36.904Z,3.26
2023-03-28T14:55:18.420Z,3.84
2023-03-28T14:57:55.120Z,4.03
2023-03-28T15:00:41.426Z,4.35
2023-03-28T15:03:25.711Z,4.32
2023-03-28T15:05:59.504Z,4.35
2023-03-28T15:08:37.319Z,4.61
2023-03-28T15:11:33.650Z,4.55
2023-03-28T15:14:15.109Z,4.17
2023-03-28T15:16:47.627Z,4.02
2023-03-28T15:19:27.155Z,4.21
2023-03-28T15:22:08.128Z,4.19
2023-03-28T15:24:40.914Z,4.48
2023-03-28T15:27:28.788Z,4.60
2023-03-28T15:30:12.534Z,4.06
2023-03-28T15:32:44.453Z,3.62
2023-03-28T15:35:38.363Z,4.00
2023-03-28T15:38:13.176Z,3.91
2023-03-28T15:41:27.808Z,4.05
2023-03-28T15:44:11.609Z,4.37
2023-03-28T15:46:46.199Z,3.91
2023-03-28T15:49:18.383Z,4.22
2023-03-28T15:52:02.618Z,4.01
2023-03-28T15:54:40.854Z,3.91
2023-03-28T15:57:14.923Z,4.35
2023-03-28T15:59:49.079Z,4.86
2023-03-28T16:02:23.480Z,5.28
2023-03-28T16:05:06.615Z,4.98
2023-03-28T16:07:44.797Z,5.18
2023-03-28T16:10:25.250Z,5.23
2023-03-28T16:13:22.865Z,5.85
2023-03-28T16:16:24.515Z,5.57
2023-03-28T16:19:21.650Z,5.47
2023-03-28T16:21:54.248Z,5.05
2023-03-28T16:24:25.997Z,4.66
2023-03-28T16:27:01.306Z,4.53
2023-03-28T16:29:33.351Z,4.98
2023-03-28T16:32:05.501Z,4.39
2023-03-28T16:34:37.439Z,4.35
2023-03-28T16:37:10.192Z,4.41
2023-03-28T16:39:41.995Z,4.63
2023-03-28T16:42:13.931Z,4.18
2023-03-28T16:44:45.613Z,4.17
2023-03-28T16:47:17.508Z,4.46
2023-03-28T16:49:49.218Z,4.44
2023-03-28T16:52:21.130Z,4.27
2023-03-28T16:54:52.802Z,4.13
2023-03-28T16:57:24.598Z,4.30
2023-03-28T16:59:56.633Z,4.22
2023-03-28T17:02:28.291Z,4.08
2023-03-28T17:05:00.150Z,3.85
2023-03-28T17:07:31.945Z,4.05
2023-03-28T17:10:03.863Z,4.09
2023-03-28T17:12:35.969Z,4.28
2023-03-28T17:15:08.232Z,4.02
2023-03-28T17:17:39.887Z,4.42
2023-03-28T17:20:11.955Z,4.81
2023-03-28T17:22:44.398Z,5.11
2023-03-28T17:25:16.288Z,4.90
2023-03-28T17:27:48.238Z,4.43
2023-03-28T17:30:20.023Z,4.11
2023-03-28T17:32:52.775Z,4.30
2023-03-28T17:35:24.552Z,4.24
2023-03-28T17:37:56.268Z,4.09
2023-03-28T17:40:27.913Z,4.21
2023-03-28T17:42:59.762Z,4.00
2023-03-28T17:45:31.928Z,4.14
2023-03-28T17:48:03.817Z,4.14
2023-03-28T17:50:35.602Z,4.55
2023-03-28T17:53:07.315Z,4.48
2023-03-28T17:55:39.101Z,4.82
2023-03-28T17:58:10.871Z,5.09
2023-03-28T18:00:42.769Z,5.13
2023-03-28T18:03:15.454Z,4.66
2023-03-28T18:06:03.744Z,4.16
2023-03-28T18:08:36.226Z,4.27
2023-03-28T18:11:11.367Z,4.05
2023-03-28T18:13:44.112Z,3.93
2023-03-28T18:16:16.421Z,3.88
2023-03-28T18:18:48.894Z,3.63
2023-03-28T18:21:21.506Z,3.62
2023-03-28T18:23:55.939Z,3.59
2023-03-28T18:26:28.421Z,3.63
2023-03-28T18:29:00.182Z,3.99
2023-03-28T18:31:32.141Z,3.50
2023-03-28T18:34:03.856Z,3.35
2023-03-28T18:36:36.013Z,3.54
2023-03-28T18:39:08.473Z,3.65
2023-03-28T18:41:41.032Z,3.41
2023-03-28T18:44:13.173Z,3.58
2023-03-28T18:46:44.954Z,3.60
2023-03-28T18:49:17.167Z,3.76
2023-03-28T18:51:49.305Z,3.61
2023-03-28T18:54:21.593Z,3.94
2023-03-28T18:56:53.309Z,3.74
2023-03-28T18:59:26.271Z,3.74
2023-03-28T19:01:58.436Z,3.90
2023-03-28T19:04:31.766Z,4.30
2023-03-28T19:07:03.663Z,4.59
2023-03-28T19:09:35.605Z,5.02
2023-03-28T19:12:07.932Z,6.71
2023-03-28T19:14:39.936Z,7.65
2023-03-28T19:17:11.639Z,7.69
2023-03-28T19:19:43.851Z,7.63
2023-03-28T19:22:15.844Z,7.12
2023-03-28T19:24:47.508Z,6.67
2023-03-28T19:27:19.356Z,6.40
2023-03-28T19:29:51.224Z,10.08
2023-03-28T19:32:23.340Z,17.80
2023-03-28T19:34:55.367Z,12.08
2023-03-28T19:37:27.203Z,13.50
2023-03-28T19:39:58.804Z,15.84
2023-03-28T19:42:30.534Z,12.11
2023-03-28T19:45:02.181Z,9.18
2023-03-28T19:47:33.916Z,8.04
2023-03-28T19:50:06.267Z,7.71
2023-03-28T19:52:38.545Z,7.89
2023-03-28T19:55:10.601Z,7.59
2023-03-28T19:57:42.533Z,7.04
2023-03-28T20:00:14.535Z,6.92
2023-03-28T20:02:46.398Z,7.00
2023-03-28T20:05:18.301Z,7.05
2023-03-28T20:07:50.266Z,7.90
2023-03-28T20:10:22.036Z,7.51
2023-03-28T20:12:53.770Z,7.27
2023-03-28T20:15:25.506Z,7.50
2023-03-28T20:17:57.278Z,7.29
2023-03-28T20:20:29.540Z,6.49
2023-03-28T20:23:01.411Z,5.90
2023-03-28T20:25:34.263Z,6.55
2023-03-28T20:28:06.006Z,6.17
2023-03-28T20:30:37.736Z,6.24
2023-03-28T20:33:09.675Z,6.67
2023-03-28T20:35:41.362Z,7.87
2023-03-28T20:38:13.129Z,7.47
2023-03-28T20:40:44.837Z,6.85
2023-03-28T20:43:16.908Z,7.36
2023-03-28T20:45:53.105Z,6.27
2023-03-28T20:48:26.212Z,6.40
2023-03-28T20:50:58.003Z,6.41
2023-03-28T20:53:33.632Z,6.68
2023-03-28T20:56:06.142Z,7.18
2023-03-28T20:58:38.791Z,6.28
2023-03-28T21:01:13.332Z,6.75
2023-03-28T21:03:45.204Z,5.88
2023-03-28T21:06:36.732Z,6.03
2023-03-28T21:09:11.334Z,5.92
2023-03-28T21:11:43.647Z,6.09
2023-03-28T21:14:15.573Z,6.01
2023-03-28T21:16:47.704Z,5.69
2023-03-28T21:19:19.630Z,5.66
2023-03-28T21:24:24.163Z,5.73
2023-03-28T21:26:56.316Z,6.01
2023-03-28T21:29:28.010Z,4.96
2023-03-28T21:32:00.110Z,4.01
2023-03-28T21:34:32.143Z,4.16
2023-03-28T21:37:04.559Z,4.04
2023-03-28T21:39:36.524Z,4.08
2023-03-28T21:42:08.435Z,4.41
2023-03-28T21:44:40.454Z,3.76
2023-03-28T21:47:12.739Z,3.44
2023-03-28T21:49:44.506Z,3.29
2023-03-28T21:52:16.282Z,3.31
2023-03-28T21:54:47.949Z,3.43
2023-03-28T21:57:20.070Z,3.30
2023-03-28T21:59:52.012Z,3.59
2023-03-28T22:02:24.111Z,3.65
2023-03-28T22:04:55.745Z,3.90
2023-03-28T22:07:27.828Z,4.07
2023-03-28T22:09:59.799Z,3.81
2023-03-28T22:12:31.942Z,3.54
2023-03-28T22:15:04.004Z,3.42
2023-03-28T22:17:36.014Z,3.78
2023-03-28T22:20:13.078Z,5.30
2023-03-28T22:22:44.908Z,6.53
2023-03-28T22:25:17.497Z,6.56
2023-03-28T22:27:49.126Z,7.22
2023-03-28T22:30:20.847Z,7.76
2023-03-28T22:32:52.594Z,7.13
2023-03-28T22:35:24.288Z,5.65
2023-03-28T22:37:56.399Z,6.04
2023-03-28T22:40:29.050Z,5.24
2023-03-28T22:43:00.835Z,7.04
2023-03-28T22:45:32.831Z,6.17
2023-03-28T22:48:04.861Z,4.76
2023-03-28T22:50:36.626Z,4.53
2023-03-28T22:53:08.347Z,4.16
2023-03-28T22:55:41.450Z,3.93
2023-03-28T22:58:13.330Z,4.00
2023-03-28T23:00:45.048Z,4.10
2023-03-28T23:03:16.952Z,3.88
2023-03-28T23:05:48.625Z,4.47
2023-03-28T23:08:20.652Z,4.84
2023-03-28T23:10:52.484Z,5.06
2023-03-28T23:13:24.360Z,5.31
2023-03-28T23:15:56.303Z,4.90
2023-03-28T23:18:29.497Z,4.94
2023-03-28T23:21:01.423Z,4.69
2023-03-28T23:23:33.689Z,4.75
2023-03-28T23:26:05.740Z,4.29
2023-03-28T23:28:37.483Z,4.21
2023-03-28T23:31:11.251Z,4.11
2023-03-28T23:33:43.729Z,4.14
2023-03-28T23:36:16.117Z,3.93
2023-03-28T23:38:48.689Z,3.94
2023-03-28T23:41:20.691Z,3.91
2023-03-28T23:43:52.399Z,3.90
2023-03-28T23:46:24.450Z,3.88
2023-03-28T23:48:56.152Z,4.12
2023-03-28T23:51:29.608Z,3.88
2023-03-28T23:54:01.837Z,3.89
2023-03-28T23:56:34.502Z,3.79
2023-03-28T23:59:07.260Z,4.09
